Kezdőlap
METAR-TAF:

METAR-TAF

Repülőterek :

Caldwell, New Jersey, Amerikai Egyesült Államok

földrajzi szélesség: 40-52-35N, földrajzi hosszúság: 074-16-59W, magasság: 52 m

Jelenlegi meteorológiai megfigyelések

A jelentés 41 perccel ezelõtt készült, 17:53 UTC
Nyugati szél 5 kt
Hőmérséklet 12°C
Páratartalom 17%
Légköri nyomás 1021 hPa
Látótávolság: 16.1 km
Derült ég

METAR: KCDW 231753Z 26005KT 10SM CLR 12/M12 A3015 RMK AO2 SLP214 T01221122 10122 21039 58026

Idő: 13:34 (18:34 UTC)


TAF: hiányzik

Meteorológiai megfigyelések és előrejelzések több, mint 4000 repülőtéren (METAR és TAF jelentéseket).

A térképen piros és sárga pontok jelzik az elérhető meteorológiai állomásokat.

Mozgassa az egeret a pont fölött, hogy megjelenjen az állomás neve.

Azután kattintson az időjárási megfigyelések és előrejelzések megtekintéséhez.

A térkép megváltoztatása: kattintson a fekete keresztel jelölt zöld gombra ráközelítéshez, a vonallal jelölt zöld gombra távolításhoz, vagy a zöld nyilakra a szomszédos térképek eléréséhez.


METAR-TAF: